Time;durP1;ratioP1;P1;durP2;ratioP2;P2;SDS_P1;SDS_P2;PMS_P1;PMS_P2;Temp;Humidity;BMP_temperature;BMP_pressure;BME280_temperature;BME280_humidity;BME280_pressure;Samples;Min_cycle;Max_cycle;Signal;HPM_P1;HPM_P2
2023/10/16 04:02:59;;;;;;;2.87;2.43;;;5.90;77.70;;;;;;4935181;29;20567;-72
2023/10/16 04:05:33;;;;;;;3.20;2.40;;;5.90;77.80;;;;;;4936055;29;20443;-72
2023/10/16 04:08:01;;;;;;;2.97;1.90;;;5.90;77.60;;;;;;4935980;29;20438;-73
2023/10/16 04:10:29;;;;;;;2.20;1.80;;;5.90;77.70;;;;;;4935830;29;20451;-72
2023/10/16 04:12:55;;;;;;;2.20;1.70;;;5.90;77.50;;;;;;4935629;29;21005;-72
2023/10/16 04:15:43;;;;;;;2.43;1.80;;;5.90;77.50;;;;;;4964758;23;20879;-73
2023/10/16 04:18:27;;;;;;;2.67;1.70;;;5.80;77.70;;;;;;4973922;28;20465;-73
2023/10/16 04:21:08;;;;;;;2.40;1.60;;;5.80;78.00;;;;;;4974286;28;20916;-73
2023/10/16 04:23:37;;;;;;;3.60;1.83;;;5.70;78.20;;;;;;4974309;28;20437;-73
2023/10/16 04:31:44;;;;;;;2.23;1.73;;;5.80;78.00;;;;;;4976745;28;20440;-73
2023/10/16 04:34:24;;;;;;;3.10;1.90;;;5.80;78.60;;;;;;4977756;28;20435;-73
2023/10/16 04:36:53;;;;;;;2.77;1.70;;;5.80;78.60;;;;;;4977874;28;20466;-73
2023/10/16 04:45:00;;;;;;;2.60;2.00;;;5.80;78.70;;;;;;4977666;28;20457;-73
2023/10/16 04:47:29;;;;;;;3.40;2.10;;;5.80;78.80;;;;;;4977701;28;20430;-73
2023/10/16 04:49:59;;;;;;;5.63;2.70;;;5.80;78.70;;;;;;4977669;28;20517;-73
2023/10/16 04:53:06;;;;;;;3.00;2.00;;;5.70;78.90;;;;;;4977586;28;20466;-73
2023/10/16 04:58:27;;;;;;;2.87;2.00;;;5.60;79.10;;;;;;4976772;28;20430;-73
2023/10/16 05:00:56;;;;;;;3.70;2.83;;;5.60;79.20;;;;;;4977451;28;20430;-73
2023/10/16 05:03:23;;;;;;;3.23;2.40;;;5.60;79.10;;;;;;4977370;28;20441;-73
2023/10/16 05:06:02;;;;;;;3.40;3.10;;;5.60;79.40;;;;;;4977282;28;20840;-73
2023/10/16 05:08:38;;;;;;;3.20;2.67;;;5.70;79.20;;;;;;4977363;28;20441;-76
2023/10/16 05:14:19;;;;;;;3.27;2.97;;;5.70;79.40;;;;;;4977563;28;20461;-73
2023/10/16 05:17:06;;;;;;;3.93;2.97;;;5.70;79.50;;;;;;4977207;28;20573;-73
2023/10/16 05:19:43;;;;;;;2.40;2.20;;;5.60;79.60;;;;;;4977123;28;20434;-73
2023/10/16 06:14:12;;;;;;;4.20;3.30;;;6.20;78.90;;;;;;4976301;28;20406;-75
2023/10/16 06:16:39;;;;;;;3.07;2.77;;;6.40;78.60;;;;;;4975616;28;20975;-74
2023/10/16 06:19:14;;;;;;;4.13;3.63;;;6.60;78.80;;;;;;4975769;28;20497;-71
2023/10/16 06:21:45;;;;;;;3.23;2.63;;;6.90;78.40;;;;;;4975734;28;20429;-72
2023/10/16 06:24:25;;;;;;;2.80;2.07;;;7.20;77.20;;;;;;4975796;28;20474;-72
2023/10/16 06:26:53;;;;;;;2.80;2.37;;;7.60;76.80;;;;;;4975695;28;20433;-72
2023/10/16 06:29:20;;;;;;;2.77;2.03;;;8.00;75.50;;;;;;4975634;28;20465;-73
2023/10/16 06:31:50;;;;;;;2.70;2.30;;;8.20;74.50;;;;;;4975517;28;20453;-74
2023/10/16 06:34:17;;;;;;;3.07;2.30;;;8.40;74.30;;;;;;4975605;28;20800;-74
2023/10/16 06:36:44;;;;;;;2.30;1.90;;;9.00;73.80;;;;;;4975404;28;20465;-74
2023/10/16 06:39:22;;;;;;;3.33;2.10;;;9.80;72.00;;;;;;4975170;28;20984;-74
2023/10/16 06:41:53;;;;;;;3.87;2.20;;;10.80;69.70;;;;;;4975525;28;20473;-74
2023/10/16 06:44:28;;;;;;;2.80;2.40;;;11.70;65.60;;;;;;4975437;28;20430;-74
2023/10/16 06:46:58;;;;;;;3.07;1.90;;;12.70;63.50;;;;;;4975414;28;20468;-74
2023/10/16 06:49:27;;;;;;;3.67;1.77;;;13.90;59.60;;;;;;4974723;28;20517;-73
2023/10/16 06:51:56;;;;;;;2.97;1.90;;;15.00;57.40;;;;;;4975249;28;20441;-72
2023/10/16 06:54:24;;;;;;;2.20;1.70;;;15.60;54.50;;;;;;4975253;28;20469;-73
2023/10/16 06:56:50;;;;;;;2.20;1.87;;;16.20;53.90;;;;;;4974856;28;20477;-73
2023/10/16 06:59:17;;;;;;;4.00;1.60;;;17.10;51.50;;;;;;4974869;28;20802;-73
2023/10/16 07:01:46;;;;;;;2.60;1.90;;;17.50;50.30;;;;;;4974771;28;20851;-72
2023/10/16 07:04:14;;;;;;;2.27;1.70;;;17.80;49.30;;;;;;4975185;28;20446;-72
2023/10/16 07:06:42;;;;;;;2.50;1.80;;;18.10;48.30;;;;;;4974910;28;20466;-73
2023/10/16 07:09:11;;;;;;;2.20;1.73;;;17.90;49.40;;;;;;4975127;28;20815;-72
2023/10/16 07:11:42;;;;;;;3.00;2.10;;;17.40;49.50;;;;;;4975055;28;20501;-72
2023/10/16 07:14:12;;;;;;;2.57;2.37;;;17.00;50.50;;;;;;4975026;28;20900;-72
2023/10/16 07:16:39;;;;;;;4.40;2.17;;;16.80;50.90;;;;;;4974568;28;20564;-72
2023/10/16 07:19:07;;;;;;;2.93;2.00;;;16.50;51.10;;;;;;4975034;28;20450;-72
2023/10/16 07:21:34;;;;;;;2.30;1.60;;;16.50;52.10;;;;;;4974888;28;20442;-72
2023/10/16 07:24:02;;;;;;;2.60;1.93;;;16.90;50.70;;;;;;4974841;28;20442;-72
2023/10/16 07:26:29;;;;;;;2.33;1.50;;;15.90;52.20;;;;;;4974754;28;20474;-72
2023/10/16 07:28:58;;;;;;;2.37;1.60;;;15.10;54.30;;;;;;4974776;28;20449;-72
2023/10/16 07:31:26;;;;;;;1.97;1.40;;;15.10;55.00;;;;;;4974770;28;20450;-73
2023/10/16 07:33:59;;;;;;;3.20;1.47;;;16.00;53.20;;;;;;4974683;28;20486;-74
2023/10/16 07:36:27;;;;;;;1.80;1.20;;;16.30;53.00;;;;;;4974582;28;20470;-71
2023/10/16 07:38:54;;;;;;;2.93;1.40;;;15.40;54.30;;;;;;4974752;28;20457;-73
2023/10/16 07:41:23;;;;;;;2.93;1.50;;;14.90;54.80;;;;;;4974786;28;20450;-72
2023/10/16 07:43:56;;;;;;;2.30;1.47;;;14.10;56.70;;;;;;4974578;28;20477;-72
2023/10/16 07:46:30;;;;;;;1.83;1.50;;;13.40;58.00;;;;;;4974569;28;20489;-72
2023/10/16 07:48:57;;;;;;;3.30;1.80;;;12.80;60.70;;;;;;4974567;28;20470;-71
2023/10/16 07:51:25;;;;;;;2.40;1.37;;;12.30;61.90;;;;;;4974435;28;20544;-72
2023/10/16 07:53:54;;;;;;;2.20;1.47;;;11.80;63.60;;;;;;4974373;28;20517;-72
2023/10/16 07:56:28;;;;;;;2.20;1.37;;;11.60;64.40;;;;;;4974348;28;20829;-72
2023/10/16 07:58:56;;;;;;;2.00;1.33;;;11.30;65.40;;;;;;4974462;28;20429;-72
2023/10/16 08:04:18;;;;;;;2.30;1.33;;;11.10;66.20;;;;;;4978736;28;20409;-74
2023/10/16 08:06:45;;;;;;;2.63;1.50;;;10.90;66.70;;;;;;4978365;28;20472;-74
2023/10/16 08:11:58;;;;;;;5.17;1.77;;;11.30;67.70;;;;;;4978036;28;20410;-74
2023/10/16 08:14:25;;;;;;;2.33;1.43;;;11.60;66.80;;;;;;4978020;28;20839;-74
2023/10/16 08:16:58;;;;;;;2.63;1.60;;;11.50;66.20;;;;;;4978090;28;20464;-74
2023/10/16 08:19:25;;;;;;;1.87;1.20;;;11.30;66.50;;;;;;4978223;28;20790;-73
2023/10/16 08:21:54;;;;;;;1.80;1.30;;;11.20;67.20;;;;;;4978182;28;20484;-74
2023/10/16 08:24:24;;;;;;;3.40;1.40;;;10.90;67.50;;;;;;4977585;28;21034;-74
2023/10/16 08:26:51;;;;;;;2.20;1.47;;;10.70;68.20;;;;;;4977842;28;20460;-73
2023/10/16 08:29:20;;;;;;;2.10;1.30;;;10.60;68.50;;;;;;4978309;28;20544;-73
2023/10/16 08:31:52;;;;;;;2.90;1.87;;;10.40;69.30;;;;;;4977866;28;20456;-71
2023/10/16 08:34:20;;;;;;;2.63;1.40;;;10.40;69.30;;;;;;4977765;28;20469;-71
2023/10/16 08:36:50;;;;;;;2.10;1.30;;;10.20;69.80;;;;;;4977711;28;20477;-72
2023/10/16 08:39:19;;;;;;;2.00;1.23;;;10.00;70.40;;;;;;4977675;28;20466;-70
2023/10/16 08:41:52;;;;;;;2.87;1.50;;;9.70;71.70;;;;;;4977276;28;20450;-71
2023/10/16 08:44:21;;;;;;;2.60;1.60;;;9.50;71.90;;;;;;4977547;28;20450;-72
2023/10/16 08:47:15;;;;;;;2.57;1.87;;;9.30;72.70;;;;;;4977494;28;20446;-72
2023/10/16 08:49:51;;;;;;;2.80;1.90;;;9.10;73.90;;;;;;4977084;28;20818;-71
2023/10/16 08:52:21;;;;;;;2.27;1.53;;;9.00;74.20;;;;;;4977406;28;20430;-71
2023/10/16 08:55:01;;;;;;;2.00;1.67;;;9.00;74.20;;;;;;4976871;28;20987;-72
2023/10/16 08:57:31;;;;;;;3.20;1.50;;;9.20;73.90;;;;;;4977324;28;20430;-72
2023/10/16 08:59:58;;;;;;;2.50;1.50;;;9.10;74.40;;;;;;4977214;28;20453;-72
2023/10/16 09:02:27;;;;;;;2.50;1.43;;;9.10;74.50;;;;;;4977161;28;20473;-71
2023/10/16 09:04:56;;;;;;;2.27;1.53;;;9.00;74.60;;;;;;4977136;28;20478;-71
2023/10/16 09:07:25;;;;;;;2.20;1.20;;;9.10;74.60;;;;;;4977257;28;20449;-72
2023/10/16 09:09:53;;;;;;;3.63;1.30;;;9.00;74.50;;;;;;4977083;28;20460;-71
2023/10/16 09:12:26;;;;;;;2.60;1.53;;;9.10;74.00;;;;;;4976488;28;20484;-71
2023/10/16 09:15:05;;;;;;;2.50;1.60;;;9.30;74.60;;;;;;4976760;28;20991;-70
2023/10/16 09:17:33;;;;;;;2.07;1.37;;;9.40;73.90;;;;;;4977789;28;20454;-72
2023/10/16 09:20:05;;;;;;;2.23;1.40;;;9.40;73.80;;;;;;4977515;28;20450;-72
2023/10/16 09:22:32;;;;;;;2.70;1.83;;;9.30;73.40;;;;;;4977579;28;20423;-70
2023/10/16 09:24:59;;;;;;;2.10;1.43;;;9.20;73.90;;;;;;4976934;28;20474;-71
2023/10/16 09:27:30;;;;;;;2.27;1.50;;;9.20;74.10;;;;;;4978047;28;20576;-71
2023/10/16 09:30:01;;;;;;;2.00;1.50;;;9.30;73.90;;;;;;4977359;28;20445;-72
2023/10/16 09:32:35;;;;;;;2.10;1.33;;;9.40;73.10;;;;;;4978493;28;20445;-72
2023/10/16 09:35:06;;;;;;;3.30;1.70;;;9.30;74.10;;;;;;4977448;28;20489;-72
2023/10/16 09:37:35;;;;;;;2.30;1.73;;;9.40;73.50;;;;;;4976690;28;20920;-71
2023/10/16 09:40:08;;;;;;;2.13;1.60;;;9.60;73.80;;;;;;4976764;28;20533;-72
2023/10/16 09:42:45;;;;;;;2.73;1.90;;;9.70;74.20;;;;;;4976709;28;20426;-72
2023/10/16 09:45:18;;;;;;;2.17;1.47;;;10.00;73.00;;;;;;4976861;28;20490;-73
2023/10/16 09:47:48;;;;;;;1.80;1.13;;;10.00;72.70;;;;;;4976775;28;20430;-72
2023/10/16 09:50:18;;;;;;;2.23;1.47;;;10.10;72.40;;;;;;4976604;28;20438;-75
2023/10/16 09:52:46;;;;;;;2.83;1.30;;;10.10;71.60;;;;;;4976414;28;20526;-73
2023/10/16 09:55:14;;;;;;;2.80;1.50;;;10.20;72.10;;;;;;4978667;28;20473;-71
2023/10/16 09:57:49;;;;;;;2.40;1.67;;;10.40;71.20;;;;;;4981175;28;20450;-72
2023/10/16 10:00:31;;;;;;;2.57;1.47;;;10.60;70.60;;;;;;4976403;28;20426;-72
2023/10/16 10:03:02;;;;;;;2.23;1.60;;;10.90;70.20;;;;;;4976485;28;20787;-72
2023/10/16 10:05:34;;;;;;;1.90;1.30;;;10.80;70.00;;;;;;4976266;28;20473;-71
2023/10/16 10:08:15;;;;;;;3.33;1.47;;;10.90;70.70;;;;;;4976632;28;20437;-71
2023/10/16 10:13:34;;;;;;;2.30;1.40;;;10.70;70.20;;;;;;4976800;28;20465;-72
2023/10/16 10:16:12;;;;;;;2.70;1.60;;;10.60;68.90;;;;;;4976427;28;20509;-72
2023/10/16 10:18:47;;;;;;;2.93;1.70;;;10.80;70.50;;;;;;4976043;28;20434;-70
2023/10/16 10:21:27;;;;;;;3.00;1.70;;;10.90;70.90;;;;;;4976208;28;20524;-75
2023/10/16 10:24:00;;;;;;;2.70;1.43;;;11.00;69.80;;;;;;4975741;28;20437;-72
2023/10/16 10:26:27;;;;;;;1.97;1.60;;;11.20;69.70;;;;;;4975976;28;20598;-72
2023/10/16 10:29:09;;;;;;;2.37;1.40;;;11.30;68.80;;;;;;4976006;28;20446;-72
2023/10/16 10:31:37;;;;;;;2.57;1.40;;;11.10;67.80;;;;;;4976577;28;20491;-72
2023/10/16 10:34:18;;;;;;;2.87;1.20;;;11.10;68.20;;;;;;4975476;28;20540;-72
2023/10/16 10:36:45;;;;;;;2.20;1.07;;;11.20;67.60;;;;;;4975492;28;20466;-72
2023/10/16 10:39:39;;;;;;;1.97;1.10;;;11.20;67.10;;;;;;4975576;28;20497;-72
2023/10/16 10:42:09;;;;;;;2.10;1.57;;;11.10;65.70;;;;;;4974051;28;20855;-72
2023/10/16 10:44:37;;;;;;;1.93;1.07;;;11.10;67.50;;;;;;4975422;28;20433;-72
2023/10/16 10:47:18;;;;;;;2.80;1.43;;;11.10;65.50;;;;;;4975990;28;20858;-72
2023/10/16 10:49:45;;;;;;;2.87;0.90;;;11.20;66.50;;;;;;4975899;28;20434;-73
2023/10/16 10:52:14;;;;;;;2.07;0.80;;;11.30;64.70;;;;;;4975468;28;20438;-73
2023/10/16 10:54:43;;;;;;;1.90;1.10;;;11.50;65.70;;;;;;4975202;28;20520;-72
2023/10/16 10:57:18;;;;;;;3.10;0.97;;;11.40;63.00;;;;;;4976209;28;20502;-73
2023/10/16 10:59:47;;;;;;;1.70;0.97;;;11.30;64.10;;;;;;4975587;28;20426;-73
2023/10/16 11:02:35;;;;;;;3.63;1.33;;;11.50;63.30;;;;;;4975456;28;20450;-74
2023/10/16 11:05:08;;;;;;;1.73;1.03;;;11.50;62.30;;;;;;4975643;28;20470;-73
2023/10/16 11:07:45;;;;;;;2.40;1.20;;;11.50;63.20;;;;;;4975509;28;20501;-74
2023/10/16 11:10:14;;;;;;;2.07;0.93;;;11.70;63.20;;;;;;4975919;28;20446;-73
2023/10/16 11:12:40;;;;;;;3.30;1.13;;;11.70;62.30;;;;;;4974980;28;20449;-73
2023/10/16 11:15:11;;;;;;;1.90;1.10;;;11.70;62.40;;;;;;4974874;28;20493;-73
2023/10/16 11:17:38;;;;;;;1.80;1.20;;;11.80;62.90;;;;;;4974825;28;20947;-73
2023/10/16 11:20:27;;;;;;;2.13;1.20;;;12.00;61.60;;;;;;4974934;28;20441;-72
2023/10/16 11:22:56;;;;;;;2.60;1.20;;;11.80;62.00;;;;;;4974997;28;20478;-71
2023/10/16 11:25:28;;;;;;;1.70;1.10;;;11.70;61.80;;;;;;4974674;28;20468;-73
2023/10/16 11:27:57;;;;;;;1.93;1.23;;;11.60;63.30;;;;;;4975130;28;20439;-73
2023/10/16 11:30:26;;;;;;;1.80;1.10;;;11.70;63.10;;;;;;4975123;28;21046;-73
2023/10/16 11:32:54;;;;;;;1.90;1.07;;;11.80;62.70;;;;;;4974749;28;20459;-73
2023/10/16 11:35:26;;;;;;;1.70;1.00;;;12.00;61.90;;;;;;4974308;28;20486;-72
2023/10/16 11:37:59;;;;;;;1.77;1.10;;;12.10;59.90;;;;;;4974622;28;20433;-73
2023/10/16 11:40:31;;;;;;;1.90;1.13;;;12.10;59.30;;;;;;4974938;28;20486;-71
2023/10/16 11:43:00;;;;;;;2.00;1.27;;;12.30;59.70;;;;;;4974710;28;20430;-72
2023/10/16 11:45:30;;;;;;;1.60;0.90;;;12.20;59.60;;;;;;4974594;28;20843;-72
2023/10/16 11:48:20;;;;;;;1.70;1.00;;;12.20;58.10;;;;;;4974652;28;20493;-72
2023/10/16 11:50:51;;;;;;;1.70;0.90;;;12.20;57.70;;;;;;4974815;28;20492;-73
2023/10/16 11:53:23;;;;;;;1.80;1.00;;;12.40;59.00;;;;;;4974420;28;20461;-72
2023/10/16 11:55:50;;;;;;;2.17;1.30;;;12.50;58.00;;;;;;4974334;28;20466;-72
2023/10/16 11:58:17;;;;;;;1.80;1.10;;;12.70;58.20;;;;;;4974650;28;20450;-70
2023/10/16 12:00:53;;;;;;;2.50;1.17;;;12.90;58.60;;;;;;4974429;28;20482;-73
2023/10/16 12:03:23;;;;;;;2.17;1.20;;;13.20;57.10;;;;;;4974340;28;20449;-73
2023/10/16 12:05:51;;;;;;;1.80;1.13;;;13.30;55.90;;;;;;4974300;28;20470;-73
2023/10/16 12:08:21;;;;;;;1.80;1.07;;;13.60;57.00;;;;;;4974315;28;20461;-75
2023/10/16 12:10:48;;;;;;;1.80;0.97;;;13.50;55.70;;;;;;4974693;28;20485;-74
2023/10/16 12:13:15;;;;;;;1.60;1.10;;;13.60;55.50;;;;;;4974309;28;20473;-73
2023/10/16 12:15:43;;;;;;;1.67;1.00;;;13.70;54.50;;;;;;4973922;28;20494;-74
2023/10/16 12:18:12;;;;;;;2.60;1.20;;;13.90;55.20;;;;;;4974223;28;20500;-73
2023/10/16 12:20:39;;;;;;;1.90;1.03;;;14.20;54.00;;;;;;4974089;28;20826;-73
2023/10/16 12:23:07;;;;;;;1.60;0.90;;;14.60;53.90;;;;;;4974181;28;20445;-73
2023/10/16 12:25:34;;;;;;;2.10;1.23;;;14.70;53.40;;;;;;4974095;28;20469;-72
2023/10/16 12:28:01;;;;;;;2.70;1.47;;;14.80;53.10;;;;;;4974111;28;20450;-73
2023/10/16 12:30:28;;;;;;;2.10;1.10;;;14.60;51.70;;;;;;4974165;28;20460;-72
2023/10/16 12:32:55;;;;;;;1.73;1.00;;;14.50;52.00;;;;;;4974134;28;20453;-73
2023/10/16 12:35:22;;;;;;;2.10;1.17;;;14.30;52.80;;;;;;4974063;28;20996;-75
2023/10/16 12:37:55;;;;;;;1.70;0.87;;;14.30;53.80;;;;;;4975440;28;20454;-74
2023/10/16 12:40:28;;;;;;;2.03;1.07;;;14.40;52.70;;;;;;4975228;28;20437;-73
2023/10/16 12:42:55;;;;;;;2.73;1.03;;;14.50;52.90;;;;;;4975131;28;20427;-74
2023/10/16 12:45:23;;;;;;;1.80;1.07;;;14.60;52.10;;;;;;4974059;28;20470;-73
2023/10/16 12:47:51;;;;;;;1.70;1.10;;;14.80;51.80;;;;;;4974295;28;20801;-73
2023/10/16 12:50:23;;;;;;;1.90;0.90;;;15.00;51.90;;;;;;4978023;28;20508;-73
2023/10/16 12:52:50;;;;;;;1.80;1.00;;;15.00;50.00;;;;;;4977783;28;20869;-73
2023/10/16 12:55:18;;;;;;;2.43;1.30;;;15.10;50.10;;;;;;4977337;28;20493;-72
2023/10/16 12:57:48;;;;;;;1.50;0.80;;;15.30;49.80;;;;;;4977625;28;20453;-73
2023/10/16 13:00:16;;;;;;;3.67;0.87;;;15.30;49.20;;;;;;4977448;28;20544;-73
2023/10/16 13:02:45;;;;;;;1.70;1.00;;;15.40;48.70;;;;;;4977132;28;20453;-73
2023/10/16 13:05:14;;;;;;;1.90;1.10;;;15.90;48.70;;;;;;4977197;28;20466;-74
2023/10/16 13:07:41;;;;;;;1.97;0.90;;;16.40;46.90;;;;;;4977361;28;20474;-73
2023/10/16 13:10:09;;;;;;;1.60;0.90;;;16.70;46.30;;;;;;4977717;28;20450;-73
2023/10/16 13:12:39;;;;;;;1.90;0.80;;;17.00;45.80;;;;;;4977308;28;20473;-74
2023/10/16 13:15:08;;;;;;;1.50;0.90;;;17.40;44.40;;;;;;4976838;28;20588;-73
2023/10/16 13:17:36;;;;;;;1.77;0.87;;;17.80;43.30;;;;;;4977070;28;20445;-74
2023/10/16 13:20:04;;;;;;;1.90;1.00;;;18.30;42.50;;;;;;4976994;28;20478;-74
2023/10/16 13:22:31;;;;;;;1.97;0.90;;;18.90;41.60;;;;;;4977030;28;20454;-73
2023/10/16 13:24:59;;;;;;;1.60;1.00;;;19.80;41.50;;;;;;4976928;28;20496;-74
2023/10/16 13:27:25;;;;;;;1.60;0.90;;;21.20;39.30;;;;;;4976853;28;20490;-74
2023/10/16 13:29:54;;;;;;;1.70;0.70;;;22.50;37.20;;;;;;4977357;28;20446;-74
2023/10/16 13:32:22;;;;;;;1.50;0.70;;;23.60;36.50;;;;;;4976996;28;20449;-73
2023/10/16 13:34:50;;;;;;;1.70;0.90;;;25.30;33.70;;;;;;4976933;28;20493;-74
2023/10/16 13:37:18;;;;;;;1.87;1.07;;;26.00;33.50;;;;;;4976749;28;20474;-74
2023/10/16 13:39:45;;;;;;;1.73;1.00;;;27.20;32.20;;;;;;4977002;28;20457;-74
2023/10/16 13:42:14;;;;;;;1.30;0.67;;;27.90;30.80;;;;;;4976609;28;20492;-75
2023/10/16 13:44:42;;;;;;;1.60;0.83;;;28.30;29.20;;;;;;4976112;28;21060;-73
2023/10/16 13:47:10;;;;;;;1.70;0.80;;;28.80;29.10;;;;;;4976607;28;20626;-74
2023/10/16 13:49:38;;;;;;;1.40;0.70;;;29.60;28.70;;;;;;4976632;28;20944;-74
2023/10/16 13:52:07;;;;;;;1.50;0.80;;;29.70;28.20;;;;;;4976185;28;20864;-75
2023/10/16 13:54:35;;;;;;;1.40;0.80;;;29.40;27.90;;;;;;4976296;28;20572;-75
2023/10/16 13:57:02;;;;;;;1.80;1.00;;;28.70;29.50;;;;;;4976549;28;20496;-75
2023/10/16 13:59:29;;;;;;;2.17;0.90;;;28.20;29.70;;;;;;4975763;28;20453;-74
2023/10/16 14:01:56;;;;;;;1.70;0.90;;;29.00;29.50;;;;;;4976238;28;20810;-75
2023/10/16 14:04:25;;;;;;;1.80;1.07;;;30.30;28.40;;;;;;4976341;28;20445;-75
2023/10/16 14:06:53;;;;;;;1.60;1.00;;;31.20;27.30;;;;;;4976765;28;20501;-75
2023/10/16 14:09:27;;;;;;;1.80;0.80;;;30.40;27.30;;;;;;4976188;28;20453;-74
2023/10/16 14:11:54;;;;;;;3.03;1.17;;;28.60;28.60;;;;;;4976249;28;20434;-74
2023/10/16 14:14:24;;;;;;;2.13;1.03;;;28.30;28.50;;;;;;4976051;28;20455;-74
2023/10/16 14:16:52;;;;;;;2.07;1.10;;;28.40;29.00;;;;;;4975856;28;20863;-73
2023/10/16 14:19:22;;;;;;;1.60;0.90;;;27.40;30.20;;;;;;4976129;28;20505;-72
2023/10/16 14:21:51;;;;;;;1.50;0.80;;;28.60;31.00;;;;;;4975988;28;20454;-73
2023/10/16 14:24:22;;;;;;;2.00;0.97;;;29.30;29.00;;;;;;4975752;28;20446;-74
2023/10/16 14:26:49;;;;;;;3.50;2.40;;;29.80;29.10;;;;;;4975742;28;20810;-74
2023/10/16 14:29:16;;;;;;;2.37;1.40;;;29.00;30.50;;;;;;4976088;28;20450;-74
2023/10/16 14:31:46;;;;;;;1.80;1.00;;;28.30;30.90;;;;;;4975944;28;20453;-73
2023/10/16 14:34:17;;;;;;;1.53;1.00;;;27.10;30.60;;;;;;4975352;28;20454;-73
2023/10/16 14:36:45;;;;;;;1.83;0.80;;;27.50;30.20;;;;;;4975505;28;20472;-72
2023/10/16 14:39:12;;;;;;;1.40;0.70;;;27.20;29.20;;;;;;4975683;28;20450;-73
2023/10/16 14:41:41;;;;;;;2.43;0.80;;;26.80;29.50;;;;;;4975715;28;20442;-74
2023/10/16 14:44:09;;;;;;;1.97;0.83;;;26.70;29.30;;;;;;4976031;28;20478;-74
2023/10/16 14:46:36;;;;;;;1.50;0.70;;;26.60;29.50;;;;;;4975032;28;20980;-75
2023/10/16 14:49:08;;;;;;;1.50;0.80;;;26.90;29.60;;;;;;4975453;28;20473;-75
2023/10/16 14:51:35;;;;;;;1.90;0.80;;;27.80;28.60;;;;;;4975464;28;20430;-75
2023/10/16 14:54:02;;;;;;;1.70;0.90;;;27.30;29.10;;;;;;4975303;28;20452;-75
2023/10/16 14:56:29;;;;;;;1.70;0.90;;;27.40;29.80;;;;;;4975135;28;20485;-75
2023/10/16 14:58:57;;;;;;;1.70;0.90;;;27.30;30.50;;;;;;4975117;28;20471;-74
2023/10/16 15:01:27;;;;;;;1.50;0.70;;;26.30;31.40;;;;;;4975008;28;20947;-74
2023/10/16 15:03:54;;;;;;;1.80;0.97;;;26.00;32.40;;;;;;4975341;28;20446;-74
2023/10/16 15:06:21;;;;;;;1.67;0.90;;;26.20;33.10;;;;;;4974879;28;20517;-73
2023/10/16 15:08:48;;;;;;;2.63;1.27;;;24.90;34.20;;;;;;4975025;28;20450;-74
2023/10/16 15:11:15;;;;;;;2.33;0.90;;;23.30;36.40;;;;;;4974264;28;20472;-73
2023/10/16 15:13:43;;;;;;;1.80;0.87;;;21.80;38.80;;;;;;4974982;28;20453;-73
2023/10/16 15:16:11;;;;;;;1.67;0.83;;;20.80;40.60;;;;;;4974516;28;20513;-74
2023/10/16 15:18:39;;;;;;;1.90;1.00;;;19.80;41.90;;;;;;4974892;28;20500;-73
2023/10/16 15:21:07;;;;;;;1.97;0.90;;;18.80;43.70;;;;;;4974733;28;20481;-75
2023/10/16 15:23:34;;;;;;;1.77;0.90;;;18.00;45.30;;;;;;4974898;28;20446;-75
2023/10/16 15:26:01;;;;;;;1.87;1.20;;;17.30;47.10;;;;;;4974838;28;20485;-74
2023/10/16 15:28:28;;;;;;;1.60;0.93;;;16.70;48.00;;;;;;4974723;28;20449;-74
2023/10/16 15:30:57;;;;;;;2.27;1.73;;;16.00;49.60;;;;;;4974716;28;20474;-75
2023/10/16 15:33:25;;;;;;;1.97;0.90;;;15.50;50.40;;;;;;4974625;28;20513;-73
2023/10/16 15:35:52;;;;;;;1.80;1.00;;;15.40;51.00;;;;;;4974610;28;20521;-74
2023/10/16 15:38:23;;;;;;;1.80;0.90;;;15.10;51.50;;;;;;4974625;28;20445;-74
2023/10/16 15:40:52;;;;;;;2.17;1.17;;;14.90;53.10;;;;;;4974427;28;20566;-71
2023/10/16 15:43:18;;;;;;;1.60;0.90;;;14.70;52.90;;;;;;4974883;28;20450;-71
2023/10/16 15:45:46;;;;;;;1.70;0.97;;;14.60;53.30;;;;;;4974583;28;20462;-73
2023/10/16 15:48:13;;;;;;;2.00;1.03;;;14.50;53.60;;;;;;4974204;28;20452;-73
2023/10/16 15:50:42;;;;;;;4.33;1.00;;;14.30;53.80;;;;;;4974494;28;20450;-73
2023/10/16 15:53:09;;;;;;;2.33;1.13;;;14.10;54.30;;;;;;4974030;28;20960;-72
2023/10/16 15:55:37;;;;;;;1.80;1.00;;;14.10;54.50;;;;;;4974247;28;20486;-73
2023/10/16 15:58:05;;;;;;;2.10;1.10;;;14.00;54.90;;;;;;4974434;28;20504;-73
2023/10/16 16:00:37;;;;;;;3.63;1.10;;;14.00;54.70;;;;;;4974474;28;20446;-73
2023/10/16 16:03:08;;;;;;;1.50;0.90;;;13.90;55.00;;;;;;4974476;28;20473;-73
2023/10/16 16:05:35;;;;;;;1.70;1.00;;;13.90;55.40;;;;;;4975317;28;20874;-73
2023/10/16 16:08:05;;;;;;;1.50;0.90;;;13.90;55.30;;;;;;4974260;28;20468;-71
2023/10/16 16:10:33;;;;;;;1.70;0.87;;;13.80;55.40;;;;;;4974279;28;20472;-73
2023/10/16 16:13:00;;;;;;;1.70;0.90;;;13.80;55.70;;;;;;4974252;28;20446;-72
2023/10/16 16:15:27;;;;;;;1.60;1.00;;;13.70;55.90;;;;;;4973989;28;20508;-72
2023/10/16 16:17:54;;;;;;;1.70;0.90;;;13.60;56.00;;;;;;4974261;28;20542;-71
2023/10/16 16:20:21;;;;;;;2.13;1.03;;;13.60;56.20;;;;;;4974224;28;20450;-72
2023/10/16 16:22:49;;;;;;;1.60;1.00;;;13.50;56.40;;;;;;4991113;23;20501;-71
2023/10/16 16:25:18;;;;;;;1.60;0.90;;;13.50;56.90;;;;;;4977955;28;20440;-71
2023/10/16 16:27:46;;;;;;;6.33;2.97;;;13.50;57.10;;;;;;4977946;28;20446;-72
2023/10/16 16:30:14;;;;;;;1.77;1.07;;;13.40;57.20;;;;;;4977906;28;20469;-71
2023/10/16 16:32:40;;;;;;;4.00;1.50;;;13.30;57.20;;;;;;4977890;28;20516;-71
2023/10/16 16:35:08;;;;;;;2.30;1.20;;;13.00;57.60;;;;;;4977634;28;20528;-71
2023/10/16 16:37:35;;;;;;;2.00;1.10;;;13.10;58.10;;;;;;4977401;28;20979;-70
2023/10/16 16:40:06;;;;;;;2.00;1.20;;;12.90;58.50;;;;;;4977696;28;20453;-71
2023/10/16 16:42:35;;;;;;;1.87;1.30;;;13.00;58.40;;;;;;4977625;28;20466;-70
2023/10/16 16:45:03;;;;;;;2.00;1.17;;;12.90;58.70;;;;;;4977609;28;20888;-70
2023/10/16 16:47:31;;;;;;;2.37;1.10;;;12.70;59.00;;;;;;4977265;28;20489;-70
2023/10/16 16:49:58;;;;;;;2.63;1.23;;;12.70;59.10;;;;;;4978066;28;20448;-70
2023/10/16 16:52:25;;;;;;;2.03;1.37;;;12.60;59.40;;;;;;4977426;28;20489;-71
2023/10/16 16:54:53;;;;;;;2.30;1.20;;;12.50;60.10;;;;;;4977431;28;20453;-70
2023/10/16 16:57:19;;;;;;;3.60;1.57;;;12.50;60.00;;;;;;4977385;28;20517;-71
2023/10/16 16:59:47;;;;;;;2.33;1.20;;;12.60;60.10;;;;;;4977345;28;20446;-72
2023/10/16 17:02:14;;;;;;;2.30;1.40;;;12.60;60.00;;;;;;4977189;28;20474;-70
2023/10/16 17:04:41;;;;;;;2.73;1.50;;;12.70;60.10;;;;;;4977290;28;20454;-71
2023/10/16 17:07:07;;;;;;;2.10;1.50;;;12.50;60.50;;;;;;4977202;28;20437;-72
2023/10/16 17:09:34;;;;;;;2.43;1.50;;;12.40;60.90;;;;;;4977146;28;20457;-72
2023/10/16 17:12:01;;;;;;;1.80;1.20;;;12.40;60.60;;;;;;4977496;28;20466;-71
2023/10/16 17:14:29;;;;;;;2.03;1.27;;;12.10;60.60;;;;;;4976901;28;20974;-72
2023/10/16 17:16:58;;;;;;;2.30;1.37;;;11.90;61.30;;;;;;4976730;28;20953;-72
2023/10/16 17:19:26;;;;;;;1.83;1.10;;;11.80;61.50;;;;;;4976995;28;20446;-72
2023/10/16 17:21:52;;;;;;;1.70;1.20;;;11.80;61.70;;;;;;4976738;28;20477;-72
2023/10/16 17:24:20;;;;;;;2.20;1.33;;;11.70;61.60;;;;;;4976974;28;20503;-70
2023/10/16 17:26:47;;;;;;;2.23;1.10;;;11.80;61.70;;;;;;4976954;28;20454;-71
2023/10/16 17:29:14;;;;;;;1.93;1.20;;;11.70;61.60;;;;;;4976607;28;20966;-70
2023/10/16 17:31:41;;;;;;;1.60;0.90;;;11.70;61.90;;;;;;4976782;28;20470;-70
2023/10/16 17:34:09;;;;;;;1.93;1.33;;;11.70;61.70;;;;;;4976152;28;20500;-70
2023/10/16 17:36:36;;;;;;;2.20;1.17;;;11.70;61.80;;;;;;4977128;28;20484;-70
2023/10/16 17:39:06;;;;;;;1.87;1.10;;;11.70;61.80;;;;;;4976679;28;20446;-71
2023/10/16 17:41:33;;;;;;;2.40;1.50;;;11.70;61.90;;;;;;4976541;28;20466;-71
2023/10/16 17:44:01;;;;;;;1.80;1.10;;;11.70;61.90;;;;;;4976596;28;20485;-71
2023/10/16 17:46:28;;;;;;;2.10;1.50;;;11.70;61.80;;;;;;4976536;28;20520;-70
2023/10/16 17:48:56;;;;;;;1.97;1.20;;;11.60;61.90;;;;;;4976619;28;20457;-71
2023/10/16 17:51:25;;;;;;;2.60;1.60;;;11.50;62.40;;;;;;4976343;28;20958;-71
2023/10/16 17:53:51;;;;;;;3.10;2.73;;;11.60;62.30;;;;;;4976464;28;20461;-71
2023/10/16 17:56:18;;;;;;;4.03;3.30;;;11.50;62.40;;;;;;4975961;28;20584;-71
2023/10/16 17:58:45;;;;;;;3.70;3.10;;;11.50;62.60;;;;;;4976285;28;20570;-71
2023/10/16 18:01:13;;;;;;;2.50;1.83;;;11.50;62.80;;;;;;4976194;28;20477;-71
2023/10/16 18:03:41;;;;;;;5.67;3.73;;;11.40;62.90;;;;;;4976217;28;20816;-71
2023/10/16 18:06:11;;;;;;;3.20;2.40;;;11.40;62.80;;;;;;4976151;28;20453;-71
2023/10/16 18:08:43;;;;;;;2.70;2.13;;;11.40;63.00;;;;;;4976104;28;20485;-71
2023/10/16 18:11:13;;;;;;;2.20;1.40;;;11.30;63.30;;;;;;4976001;28;20530;-70
2023/10/16 18:13:41;;;;;;;2.10;1.47;;;11.20;63.70;;;;;;4975727;28;20930;-71
2023/10/16 18:16:08;;;;;;;2.97;1.43;;;11.20;63.60;;;;;;4975886;28;20532;-71
2023/10/16 18:18:35;;;;;;;3.50;1.60;;;11.20;63.70;;;;;;4975546;28;20454;-71
2023/10/16 18:21:03;;;;;;;2.80;1.40;;;11.10;64.30;;;;;;4975534;28;20971;-71